Time;durP1;ratioP1;P1;durP2;ratioP2;P2;SDS_P1;SDS_P2;PMS_P1;PMS_P2;Temp;Humidity;BMP_temperature;BMP_pressure;BME280_temperature;BME280_humidity;BME280_pressure;Samples;Min_cycle;Max_cycle;Signal;HPM_P1;HPM_P2
2021/12/14 00:01:35;;;;;;;25.63;15.30;;;;;;;;;;4992934;28;20030;-79
2021/12/14 00:04:10;;;;;;;27.55;16.73;;;;;;;;;;4992751;28;20484;-79
2021/12/14 00:06:43;;;;;;;24.20;15.23;;;;;;;;;;4992956;28;20038;-79
2021/12/14 00:09:11;;;;;;;25.17;15.38;;;;;;;;;;4993100;28;20468;-79
2021/12/14 00:15:01;;;;;;;30.73;15.52;;;;;;;;;;4992756;28;20038;-79
2021/12/14 00:17:00;;;;;;;29.92;16.27;;;;;;;;;;4992486;28;20082;-79
2021/12/14 00:19:28;;;;;;;29.77;15.63;;;;;;;;;;4991532;28;20042;-79
2021/12/14 00:22:03;;;;;;;28.63;16.05;;;;;;;;;;4992539;28;20034;-79
2021/12/14 00:24:29;;;;;;;29.05;15.40;;;;;;;;;;4992018;28;20043;-79
2021/12/14 00:27:06;;;;;;;28.55;15.75;;;;;;;;;;4992369;28;20049;-79
2021/12/14 00:29:35;;;;;;;25.95;15.20;;;;;;;;;;4992770;28;20038;-79
2021/12/14 00:32:06;;;;;;;29.08;15.38;;;;;;;;;;4991392;28;20042;-79
2021/12/14 00:34:41;;;;;;;26.83;15.07;;;;;;;;;;4992327;28;20449;-79
2021/12/14 00:37:17;;;;;;;24.38;14.55;;;;;;;;;;4992480;28;20042;-79
2021/12/14 00:39:45;;;;;;;23.45;13.57;;;;;;;;;;4992687;28;20046;-79
2021/12/14 00:42:11;;;;;;;24.65;13.52;;;;;;;;;;4992712;28;20034;-79
2021/12/14 00:44:39;;;;;;;25.23;13.77;;;;;;;;;;4992194;28;20022;-79
2021/12/14 00:47:06;;;;;;;24.83;13.80;;;;;;;;;;4992106;28;20037;-79
2021/12/14 00:49:33;;;;;;;23.70;14.25;;;;;;;;;;4992558;28;20042;-79
2021/12/14 00:51:59;;;;;;;24.73;14.18;;;;;;;;;;4991095;28;20033;-79
2021/12/14 00:54:25;;;;;;;26.08;14.07;;;;;;;;;;4992336;28;20516;-79
2021/12/14 00:56:52;;;;;;;23.70;13.25;;;;;;;;;;4992440;28;20122;-79
2021/12/14 00:59:20;;;;;;;24.30;13.60;;;;;;;;;;4992541;28;20061;-79
2021/12/14 01:01:56;;;;;;;21.15;13.40;;;;;;;;;;4992365;28;20034;-79
2021/12/14 01:04:28;;;;;;;21.08;12.93;;;;;;;;;;4992430;28;20038;-79
2021/12/14 01:06:54;;;;;;;21.10;12.88;;;;;;;;;;4992171;28;20046;-79
2021/12/14 01:09:25;;;;;;;22.50;14.07;;;;;;;;;;4992313;28;20030;-79
2021/12/14 01:11:52;;;;;;;22.38;13.27;;;;;;;;;;4992119;28;20033;-79
2021/12/14 01:14:29;;;;;;;23.05;13.40;;;;;;;;;;4991647;28;20034;-79
2021/12/14 01:17:13;;;;;;;24.65;14.05;;;;;;;;;;4992060;28;20062;-79
2021/12/14 01:19:43;;;;;;;24.73;13.35;;;;;;;;;;4992072;28;20053;-79
2021/12/14 01:22:19;;;;;;;22.20;12.82;;;;;;;;;;4992349;28;20042;-79
2021/12/14 01:27:35;;;;;;;23.20;14.38;;;;;;;;;;4992829;28;20050;-79
2021/12/14 01:30:07;;;;;;;25.77;14.95;;;;;;;;;;4992132;28;20065;-78
2021/12/14 01:32:38;;;;;;;24.10;15.20;;;;;;;;;;4991727;28;20465;-79
2021/12/14 01:35:12;;;;;;;24.38;13.93;;;;;;;;;;4991722;28;20041;-79
2021/12/14 01:37:44;;;;;;;23.52;14.23;;;;;;;;;;4975281;28;20385;-79
2021/12/14 01:40:19;;;;;;;23.60;13.32;;;;;;;;;;4990620;28;20042;-79
2021/12/14 01:42:46;;;;;;;22.25;13.70;;;;;;;;;;4991036;28;20049;-79
2021/12/14 01:45:20;;;;;;;21.95;13.20;;;;;;;;;;4992169;28;20126;-79
2021/12/14 01:47:54;;;;;;;23.17;14.18;;;;;;;;;;4992209;28;20038;-79
2021/12/14 01:50:32;;;;;;;23.17;13.50;;;;;;;;;;4991206;28;20038;-80
2021/12/14 01:52:59;;;;;;;22.25;13.45;;;;;;;;;;4991374;28;20042;-78
2021/12/14 01:55:28;;;;;;;23.05;13.98;;;;;;;;;;4991657;28;20038;-79
2021/12/14 01:57:57;;;;;;;26.90;13.82;;;;;;;;;;4991180;28;20054;-79
2021/12/14 02:00:33;;;;;;;28.08;14.73;;;;;;;;;;4990808;28;20049;-78
2021/12/14 02:03:04;;;;;;;26.38;14.55;;;;;;;;;;4990668;28;20053;-79
2021/12/14 02:05:38;;;;;;;27.42;14.00;;;;;;;;;;4990852;28;20428;-78
2021/12/14 02:08:20;;;;;;;22.40;13.30;;;;;;;;;;4991046;28;20042;-79
2021/12/14 02:10:49;;;;;;;26.48;13.57;;;;;;;;;;5006407;28;20042;-79
2021/12/14 02:13:24;;;;;;;24.20;13.57;;;;;;;;;;5008574;28;20038;-78
2021/12/14 02:15:50;;;;;;;24.70;14.25;;;;;;;;;;5007645;28;20042;-79
2021/12/14 02:18:20;;;;;;;30.15;16.05;;;;;;;;;;5008920;28;20038;-78
2021/12/14 02:20:53;;;;;;;30.77;16.52;;;;;;;;;;4998994;28;20038;-79
2021/12/14 02:23:20;;;;;;;30.90;18.15;;;;;;;;;;4998396;28;20543;-79
2021/12/14 02:25:48;;;;;;;28.20;17.17;;;;;;;;;;4989818;28;20054;-79
2021/12/14 02:28:18;;;;;;;35.13;18.67;;;;;;;;;;4974748;28;20031;-79
2021/12/14 02:30:46;;;;;;;25.92;14.98;;;;;;;;;;4981500;28;20038;-79
2021/12/14 02:33:31;;;;;;;26.50;15.45;;;;;;;;;;4994203;28;20042;-79
2021/12/14 02:35:58;;;;;;;26.25;16.10;;;;;;;;;;4994227;28;20050;-79
2021/12/14 02:38:26;;;;;;;32.47;17.65;;;;;;;;;;4994104;28;20130;-79
2021/12/14 02:41:05;;;;;;;25.83;15.05;;;;;;;;;;4994919;28;20454;-79
2021/12/14 02:43:31;;;;;;;28.50;14.98;;;;;;;;;;4994955;28;20057;-79
2021/12/14 02:46:06;;;;;;;26.80;16.55;;;;;;;;;;4994375;28;20042;-78
2021/12/14 02:48:33;;;;;;;28.65;15.82;;;;;;;;;;4994074;28;20034;-79
2021/12/14 02:51:17;;;;;;;26.80;16.23;;;;;;;;;;4993773;28;20508;-79
2021/12/14 02:53:44;;;;;;;26.00;15.23;;;;;;;;;;4993968;28;20421;-79
2021/12/14 02:56:15;;;;;;;28.90;16.30;;;;;;;;;;4993988;28;20122;-79
2021/12/14 02:58:43;;;;;;;26.97;15.43;;;;;;;;;;4994020;28;20580;-79
2021/12/14 03:01:10;;;;;;;27.50;16.70;;;;;;;;;;4994175;28;20049;-78
2021/12/14 03:03:36;;;;;;;25.30;15.20;;;;;;;;;;4993951;28;20026;-78
2021/12/14 03:06:05;;;;;;;26.70;15.15;;;;;;;;;;4993696;28;20057;-78
2021/12/14 03:08:37;;;;;;;30.92;15.30;;;;;;;;;;4993708;28;20050;-79
2021/12/14 03:11:11;;;;;;;31.02;16.20;;;;;;;;;;4993824;28;20030;-79
2021/12/14 03:13:43;;;;;;;27.63;16.40;;;;;;;;;;4993635;28;20531;-79
2021/12/14 03:16:15;;;;;;;29.20;17.60;;;;;;;;;;4993985;28;20046;-78
2021/12/14 03:18:44;;;;;;;28.20;16.75;;;;;;;;;;4992579;28;20049;-78
2021/12/14 03:21:14;;;;;;;31.80;17.08;;;;;;;;;;4993475;28;20053;-79
2021/12/14 03:23:47;;;;;;;26.98;16.52;;;;;;;;;;4992021;28;20519;-79
2021/12/14 03:26:17;;;;;;;28.08;16.52;;;;;;;;;;4993362;28;20046;-79
2021/12/14 03:28:47;;;;;;;30.77;17.23;;;;;;;;;;4993430;28;20073;-79
2021/12/14 03:31:43;;;;;;;29.25;16.65;;;;;;;;;;4992964;28;20057;-79
2021/12/14 03:34:14;;;;;;;32.53;18.35;;;;;;;;;;4992272;28;20050;-79
2021/12/14 03:36:45;;;;;;;30.02;17.88;;;;;;;;;;4993209;28;20034;-79
2021/12/14 03:39:16;;;;;;;35.25;17.98;;;;;;;;;;4993117;28;20069;-79
2021/12/14 03:41:52;;;;;;;28.88;17.77;;;;;;;;;;4993048;28;20041;-78
2021/12/14 03:44:28;;;;;;;31.85;18.63;;;;;;;;;;4993107;28;20442;-79
2021/12/14 03:47:06;;;;;;;34.97;19.75;;;;;;;;;;4992725;28;20039;-79
2021/12/14 03:49:41;;;;;;;37.17;21.13;;;;;;;;;;4993062;28;20046;-79
2021/12/14 03:52:10;;;;;;;41.45;22.17;;;;;;;;;;4992727;28;20469;-79
2021/12/14 03:54:37;;;;;;;40.13;22.27;;;;;;;;;;4992770;28;20026;-79
2021/12/14 03:57:03;;;;;;;42.33;23.90;;;;;;;;;;4993059;28;20045;-79
2021/12/14 03:59:31;;;;;;;41.90;24.90;;;;;;;;;;4992484;28;20062;-79
2021/12/14 04:01:59;;;;;;;39.95;23.58;;;;;;;;;;4992574;28;20056;-79
2021/12/14 04:04:31;;;;;;;41.65;23.25;;;;;;;;;;4992578;28;20030;-79
2021/12/14 04:07:00;;;;;;;37.22;22.23;;;;;;;;;;4992389;28;20496;-78
2021/12/14 04:09:30;;;;;;;42.15;23.17;;;;;;;;;;4992438;28;20030;-79
2021/12/14 04:11:57;;;;;;;38.67;22.85;;;;;;;;;;4992899;28;20470;-78
2021/12/14 04:14:28;;;;;;;45.10;24.42;;;;;;;;;;4992126;28;20034;-78
2021/12/14 04:16:56;;;;;;;43.75;24.17;;;;;;;;;;4992569;28;20042;-78
2021/12/14 04:19:25;;;;;;;39.95;22.08;;;;;;;;;;4990799;28;20034;-79
2021/12/14 04:21:54;;;;;;;39.97;22.98;;;;;;;;;;4992447;28;20050;-78
2021/12/14 04:24:24;;;;;;;45.00;23.77;;;;;;;;;;4992107;28;20065;-78
2021/12/14 04:26:54;;;;;;;42.35;23.88;;;;;;;;;;4992164;28;20484;-78
2021/12/14 04:29:20;;;;;;;44.10;24.55;;;;;;;;;;4992068;28;20049;-78
2021/12/14 04:31:48;;;;;;;44.67;23.92;;;;;;;;;;4991831;28;20026;-78
2021/12/14 04:34:17;;;;;;;45.78;25.02;;;;;;;;;;4991983;28;20354;-78
2021/12/14 04:36:46;;;;;;;45.10;24.55;;;;;;;;;;4992346;28;20058;-78
2021/12/14 04:53:14;;;;;;;46.55;24.00;;;;;;;;;;4992039;28;20034;-80
2021/12/14 04:55:43;;;;;;;43.95;23.92;;;;;;;;;;4991965;28;20479;-78
2021/12/14 04:58:10;;;;;;;45.47;25.90;;;;;;;;;;4991629;28;20050;-78
2021/12/14 05:00:38;;;;;;;43.53;24.48;;;;;;;;;;4992066;28;20034;-77
2021/12/14 05:03:14;;;;;;;47.03;25.13;;;;;;;;;;4991992;28;20046;-78
2021/12/14 05:05:48;;;;;;;48.67;26.02;;;;;;;;;;4989451;28;20492;-78
2021/12/14 05:11:08;;;;;;;47.53;24.85;;;;;;;;;;4991001;28;20516;-78
2021/12/14 05:13:44;;;;;;;45.08;24.30;;;;;;;;;;4989040;28;20412;-78
2021/12/14 05:16:17;;;;;;;46.53;24.98;;;;;;;;;;4989524;28;20049;-78
2021/12/14 05:18:48;;;;;;;47.78;26.00;;;;;;;;;;4988679;28;20027;-79
2021/12/14 05:21:42;;;;;;;45.05;25.42;;;;;;;;;;4988739;28;20480;-78
2021/12/14 05:24:11;;;;;;;43.60;24.30;;;;;;;;;;4987795;28;20054;-79
2021/12/14 05:26:37;;;;;;;44.97;23.77;;;;;;;;;;4991463;28;20534;-78
2021/12/14 05:29:05;;;;;;;41.03;22.25;;;;;;;;;;4983765;28;20065;-79
2021/12/14 05:31:31;;;;;;;43.20;22.80;;;;;;;;;;4972793;28;20043;-70
2021/12/14 05:33:57;;;;;;;47.97;24.52;;;;;;;;;;4970845;28;20035;-72
2021/12/14 05:36:24;;;;;;;44.47;23.38;;;;;;;;;;4989171;28;20034;-79
2021/12/14 05:39:06;;;;;;;62.05;32.78;;;;;;;;;;4991676;28;20069;-80
2021/12/14 05:44:23;;;;;;;57.28;30.77;;;;;;;;;;4993826;28;20413;-81
2021/12/14 05:46:54;;;;;;;69.00;38.72;;;;;;;;;;4988716;28;20049;-80
2021/12/14 05:49:25;;;;;;;60.83;33.70;;;;;;;;;;4990584;28;20049;-80
2021/12/14 05:51:53;;;;;;;38.95;22.05;;;;;;;;;;4988989;28;20046;-80
2021/12/14 05:54:28;;;;;;;35.75;19.42;;;;;;;;;;4990569;28;20469;-80
2021/12/14 05:56:56;;;;;;;32.22;19.40;;;;;;;;;;4989735;28;20030;-80
2021/12/14 05:59:27;;;;;;;36.35;19.73;;;;;;;;;;4990425;28;20044;-81
2021/12/14 06:01:54;;;;;;;37.67;19.85;;;;;;;;;;4989007;28;20038;-81
2021/12/14 06:04:20;;;;;;;33.70;18.77;;;;;;;;;;4982570;28;20043;-68
2021/12/14 06:06:52;;;;;;;32.47;19.42;;;;;;;;;;4983675;28;20035;-68
2021/12/14 06:09:29;;;;;;;32.00;17.73;;;;;;;;;;4984221;28;20038;-68
2021/12/14 06:12:08;;;;;;;28.60;17.55;;;;;;;;;;4981678;28;20117;-79
2021/12/14 06:14:41;;;;;;;30.52;17.52;;;;;;;;;;4987405;28;20031;-77
2021/12/14 06:17:08;;;;;;;31.98;17.70;;;;;;;;;;4980625;28;20042;-77
2021/12/14 06:19:48;;;;;;;27.50;16.40;;;;;;;;;;4971610;28;20027;-77
2021/12/14 06:22:18;;;;;;;26.77;15.85;;;;;;;;;;4983599;28;20077;-80
2021/12/14 06:24:59;;;;;;;28.17;16.23;;;;;;;;;;4988212;28;20049;-82
2021/12/14 06:27:27;;;;;;;28.95;16.60;;;;;;;;;;4983295;28;20115;-81
2021/12/14 06:30:00;;;;;;;32.95;17.30;;;;;;;;;;4975356;28;20064;-80
2021/12/14 06:32:29;;;;;;;28.27;16.02;;;;;;;;;;4990388;28;20034;-82
2021/12/14 06:35:07;;;;;;;38.85;24.27;;;;;;;;;;4991366;28;20035;-85
2021/12/14 06:37:54;;;;;;;66.13;36.70;;;;;;;;;;4987877;28;20206;-80
2021/12/14 06:40:27;;;;;;;26.65;16.67;;;;;;;;;;4983130;28;20054;-78
2021/12/14 06:42:58;;;;;;;27.75;16.20;;;;;;;;;;4991891;28;20502;-79
2021/12/14 06:45:29;;;;;;;28.00;16.25;;;;;;;;;;4974278;28;20030;-78
2021/12/14 06:48:03;;;;;;;27.63;16.25;;;;;;;;;;4988968;28;20037;-79
2021/12/14 06:50:43;;;;;;;29.42;15.80;;;;;;;;;;4982486;28;20061;-83
2021/12/14 06:53:12;;;;;;;23.08;14.45;;;;;;;;;;4986901;28;20035;-80
2021/12/14 06:55:39;;;;;;;27.10;16.08;;;;;;;;;;4989445;28;20049;-80
2021/12/14 06:58:27;;;;;;;25.23;15.02;;;;;;;;;;4982223;28;20039;-80
2021/12/14 07:00:58;;;;;;;26.70;15.57;;;;;;;;;;4985427;28;20362;-78
2021/12/14 07:03:54;;;;;;;26.75;16.15;;;;;;;;;;4983803;28;20464;-79
2021/12/14 07:06:36;;;;;;;29.02;17.00;;;;;;;;;;4984902;28;20134;-79
2021/12/14 07:09:18;;;;;;;31.52;18.73;;;;;;;;;;4992622;28;20030;-80
2021/12/14 07:12:10;;;;;;;30.42;17.83;;;;;;;;;;4993739;28;20045;-79
2021/12/14 07:14:42;;;;;;;32.05;18.00;;;;;;;;;;4981994;28;20493;-80
2021/12/14 07:17:18;;;;;;;34.92;19.02;;;;;;;;;;4989852;28;20511;-79
2021/12/14 07:19:55;;;;;;;36.25;20.30;;;;;;;;;;5004485;28;20033;-78
2021/12/14 07:22:24;;;;;;;36.33;19.63;;;;;;;;;;5018111;28;20038;-79
2021/12/14 07:25:12;;;;;;;33.90;18.90;;;;;;;;;;5019316;28;20042;-78
2021/12/14 07:27:38;;;;;;;32.28;17.88;;;;;;;;;;5019334;28;20042;-79
2021/12/14 07:30:18;;;;;;;30.98;18.88;;;;;;;;;;5007532;28;20041;-80
2021/12/14 07:32:46;;;;;;;36.42;19.20;;;;;;;;;;5004568;28;20504;-79
2021/12/14 07:35:16;;;;;;;34.78;19.67;;;;;;;;;;5013498;28;20054;-79
2021/12/14 07:37:42;;;;;;;36.20;20.02;;;;;;;;;;5000965;28;20606;-76
2021/12/14 07:40:10;;;;;;;32.63;19.60;;;;;;;;;;5011714;28;20039;-77
2021/12/14 07:42:36;;;;;;;36.53;19.60;;;;;;;;;;5012432;28;20026;-74
2021/12/14 07:45:03;;;;;;;38.83;21.15;;;;;;;;;;4997627;28;20504;-74
2021/12/14 07:47:29;;;;;;;29.70;17.80;;;;;;;;;;5007694;28;20057;-80
2021/12/14 07:49:56;;;;;;;36.85;20.67;;;;;;;;;;5017746;28;20038;-83
2021/12/14 07:52:28;;;;;;;33.92;18.58;;;;;;;;;;5012455;28;20041;-83
2021/12/14 07:55:14;;;;;;;32.78;19.65;;;;;;;;;;5015196;28;20018;-83
2021/12/14 07:57:41;;;;;;;35.50;20.05;;;;;;;;;;5018889;28;20033;-83
2021/12/14 08:00:21;;;;;;;40.50;20.08;;;;;;;;;;5016227;28;20040;-83
2021/12/14 08:02:53;;;;;;;34.20;20.37;;;;;;;;;;5017194;28;20030;-83
2021/12/14 08:05:31;;;;;;;31.92;18.95;;;;;;;;;;5017247;28;20109;-82
2021/12/14 08:08:16;;;;;;;34.47;18.48;;;;;;;;;;5015043;28;20033;-83
2021/12/14 08:10:49;;;;;;;33.28;19.02;;;;;;;;;;5004044;28;20023;-85
2021/12/14 08:13:17;;;;;;;35.05;19.52;;;;;;;;;;5020688;28;20015;-85
2021/12/14 08:15:55;;;;;;;36.85;19.55;;;;;;;;;;5019519;28;20057;-85
2021/12/14 08:18:24;;;;;;;36.22;20.20;;;;;;;;;;4997591;28;20098;-85
2021/12/14 08:21:03;;;;;;;40.65;24.13;;;;;;;;;;4997517;28;20037;-85
2021/12/14 08:23:35;;;;;;;44.95;26.77;;;;;;;;;;4996385;28;20034;-85
2021/12/14 08:26:07;;;;;;;35.03;19.30;;;;;;;;;;4995720;28;20404;-85
2021/12/14 08:28:44;;;;;;;34.15;18.98;;;;;;;;;;4995510;28;20034;-85
2021/12/14 08:31:11;;;;;;;37.63;19.20;;;;;;;;;;4995805;28;20457;-84
2021/12/14 08:33:36;;;;;;;37.33;20.75;;;;;;;;;;4997488;28;20026;-85
2021/12/14 08:36:06;;;;;;;33.45;18.98;;;;;;;;;;4994243;28;20046;-85
2021/12/14 08:38:34;;;;;;;34.42;20.50;;;;;;;;;;4996036;28;20041;-85
2021/12/14 08:41:18;;;;;;;33.88;20.02;;;;;;;;;;4995462;28;20398;-84
2021/12/14 08:43:50;;;;;;;32.78;19.77;;;;;;;;;;4995380;28;20033;-85
2021/12/14 08:46:26;;;;;;;34.28;20.35;;;;;;;;;;4993656;28;20035;-84
2021/12/14 08:49:35;;;;;;;33.22;20.30;;;;;;;;;;4993385;28;20034;-86
2021/12/14 08:52:02;;;;;;;33.95;18.83;;;;;;;;;;4994534;28;20049;-85
2021/12/14 08:54:32;;;;;;;35.30;20.95;;;;;;;;;;4994962;28;20033;-85
2021/12/14 08:57:06;;;;;;;36.42;20.60;;;;;;;;;;4994684;28;20408;-86
2021/12/14 08:59:33;;;;;;;36.22;20.92;;;;;;;;;;4994754;28;20107;-85
2021/12/14 09:02:02;;;;;;;34.97;21.05;;;;;;;;;;4993283;28;20030;-83
2021/12/14 09:04:33;;;;;;;35.63;20.10;;;;;;;;;;4992737;28;20030;-86
2021/12/14 09:07:05;;;;;;;34.17;19.98;;;;;;;;;;4991354;28;20420;-85
2021/12/14 09:09:31;;;;;;;37.53;20.67;;;;;;;;;;4993541;28;20045;-85
2021/12/14 09:12:04;;;;;;;36.00;20.77;;;;;;;;;;4995140;28;20033;-85
2021/12/14 09:14:31;;;;;;;34.65;19.95;;;;;;;;;;4995501;28;20028;-85
2021/12/14 09:16:57;;;;;;;34.92;20.25;;;;;;;;;;4995151;28;20026;-85
2021/12/14 09:19:36;;;;;;;38.75;21.50;;;;;;;;;;4984844;28;20030;-87
2021/12/14 09:22:08;;;;;;;35.58;20.35;;;;;;;;;;5016200;28;20041;-86
2021/12/14 09:24:35;;;;;;;37.30;20.73;;;;;;;;;;5015848;28;20048;-85
2021/12/14 09:27:05;;;;;;;38.17;21.02;;;;;;;;;;5015853;28;20030;-85
2021/12/14 09:29:32;;;;;;;39.83;20.35;;;;;;;;;;5015517;28;20041;-86
2021/12/14 09:32:00;;;;;;;39.40;20.50;;;;;;;;;;4997293;28;20477;-86
2021/12/14 09:34:29;;;;;;;39.25;20.75;;;;;;;;;;4992694;28;20469;-84
2021/12/14 09:36:58;;;;;;;43.53;20.77;;;;;;;;;;4992089;28;20022;-84
2021/12/14 09:39:30;;;;;;;38.47;20.55;;;;;;;;;;4983649;28;20468;-85
2021/12/14 09:42:01;;;;;;;38.58;20.67;;;;;;;;;;4986348;28;20037;-86
2021/12/14 09:44:29;;;;;;;39.00;19.65;;;;;;;;;;4985908;28;20034;-86
2021/12/14 09:46:57;;;;;;;35.83;20.02;;;;;;;;;;4971565;28;20035;-85
2021/12/14 09:49:26;;;;;;;36.85;20.23;;;;;;;;;;4973068;28;20049;-86
2021/12/14 09:52:02;;;;;;;41.17;19.95;;;;;;;;;;4972676;28;20291;-86
2021/12/14 09:54:29;;;;;;;34.10;19.27;;;;;;;;;;4981184;28;20029;-86
2021/12/14 09:57:04;;;;;;;33.60;18.13;;;;;;;;;;4979305;28;20039;-86
2021/12/14 09:59:30;;;;;;;35.08;19.13;;;;;;;;;;4990800;28;20042;-85
2021/12/14 10:02:12;;;;;;;38.08;22.00;;;;;;;;;;4991693;28;20400;-86
2021/12/14 10:04:51;;;;;;;38.90;19.90;;;;;;;;;;4992554;28;20046;-86
2021/12/14 10:07:18;;;;;;;33.83;19.10;;;;;;;;;;4991847;28;20039;-86
2021/12/14 10:09:48;;;;;;;40.88;22.45;;;;;;;;;;4992376;28;20046;-86
2021/12/14 10:14:51;;;;;;;34.47;18.90;;;;;;;;;;4992588;28;20034;-87
2021/12/14 10:17:20;;;;;;;37.30;19.73;;;;;;;;;;4992468;28;20053;-86
2021/12/14 10:19:47;;;;;;;37.97;19.33;;;;;;;;;;4992188;28;20043;-86
2021/12/14 10:22:28;;;;;;;34.90;19.50;;;;;;;;;;4992632;28;20049;-86
2021/12/14 10:25:03;;;;;;;35.97;19.30;;;;;;;;;;4987940;28;20046;-86
2021/12/14 10:27:31;;;;;;;36.75;19.25;;;;;;;;;;4986726;28;20042;-87
2021/12/14 10:29:59;;;;;;;36.63;18.92;;;;;;;;;;4989407;28;20373;-87
2021/12/14 10:32:32;;;;;;;38.45;19.83;;;;;;;;;;4987400;28;20033;-86
2021/12/14 10:35:04;;;;;;;32.95;18.83;;;;;;;;;;4987218;28;20042;-85
2021/12/14 10:37:50;;;;;;;39.55;19.52;;;;;;;;;;4987094;28;20035;-85
2021/12/14 10:43:24;;;;;;;37.95;20.52;;;;;;;;;;4980439;28;20050;-86
2021/12/14 10:45:55;;;;;;;41.30;20.45;;;;;;;;;;4976217;28;20031;-86
2021/12/14 10:48:23;;;;;;;;;;;;;;;;;;4983139;28;20042;-86
2021/12/14 10:50:51;;;;;;;40.55;20.63;;;;;;;;;;4995280;28;19925;-87
2021/12/14 10:53:20;;;;;;;35.53;19.90;;;;;;;;;;4991734;28;20046;-86
2021/12/14 10:55:59;;;;;;;38.67;19.98;;;;;;;;;;4993835;28;20042;-86
2021/12/14 10:58:28;;;;;;;34.45;19.13;;;;;;;;;;4975790;28;20469;-86
2021/12/14 11:01:05;;;;;;;37.15;20.35;;;;;;;;;;4975088;28;20031;-85
2021/12/14 11:03:36;;;;;;;34.15;18.15;;;;;;;;;;4981045;28;20351;-85
2021/12/14 11:06:12;;;;;;;33.15;18.50;;;;;;;;;;4995448;28;20105;-88
2021/12/14 11:09:52;;;;;;;31.08;16.50;;;;;;;;;;4994819;28;20038;-87
2021/12/14 11:11:49;;;;;;;30.00;17.05;;;;;;;;;;4998641;28;20409;-83
2021/12/14 11:14:24;;;;;;;31.08;16.63;;;;;;;;;;4996291;28;20038;-85
2021/12/14 11:19:44;;;;;;;26.90;15.90;;;;;;;;;;4999784;28;20035;-87
2021/12/14 11:22:25;;;;;;;29.58;16.80;;;;;;;;;;4994782;28;20026;-86
2021/12/14 11:24:59;;;;;;;;;;;;;;;;;;4995148;28;20050;-86
2021/12/14 11:27:33;;;;;;;23.77;14.05;;;;;;;;;;4998110;28;19914;-87
2021/12/14 11:30:21;;;;;;;22.30;13.57;;;;;;;;;;4997465;28;20041;-86
2021/12/14 11:33:08;;;;;;;24.25;14.00;;;;;;;;;;4996349;28;20043;-84
2021/12/14 11:35:40;;;;;;;23.85;13.88;;;;;;;;;;4994768;28;20038;-88
2021/12/14 11:38:21;;;;;;;32.90;16.58;;;;;;;;;;4995077;28;20046;-87
2021/12/14 11:40:47;;;;;;;31.30;17.17;;;;;;;;;;4994684;28;20038;-86
2021/12/14 11:43:19;;;;;;;29.20;17.25;;;;;;;;;;4994858;28;20041;-86
2021/12/14 11:45:47;;;;;;;30.95;17.55;;;;;;;;;;4994273;28;20026;-80
2021/12/14 11:48:14;;;;;;;31.15;17.33;;;;;;;;;;4993367;28;20046;-70
2021/12/14 11:50:45;;;;;;;33.10;17.20;;;;;;;;;;4994024;28;20053;-85
2021/12/14 11:53:15;;;;;;;32.63;16.83;;;;;;;;;;4994423;28;20469;-86
2021/12/14 11:55:52;;;;;;;31.07;16.57;;;;;;;;;;4993656;28;20030;-85
2021/12/14 11:58:30;;;;;;;30.70;16.55;;;;;;;;;;4992624;28;20061;-86
2021/12/14 12:01:05;;;;;;;30.10;16.77;;;;;;;;;;4994028;28;20077;-85
2021/12/14 12:03:34;;;;;;;30.08;16.58;;;;;;;;;;4994453;28;20034;-85
2021/12/14 12:06:31;;;;;;;28.45;15.45;;;;;;;;;;4993599;28;20034;-85
2021/12/14 12:11:46;;;;;;;48.65;27.50;;;;;;;;;;4999666;28;20038;-85
2021/12/14 12:14:41;;;;;;;28.08;16.73;;;;;;;;;;4993780;28;20049;-86
2021/12/14 12:17:25;;;;;;;29.38;16.25;;;;;;;;;;4988921;28;20038;-86
2021/12/14 12:20:08;;;;;;;27.15;14.77;;;;;;;;;;4992343;28;20034;-85
2021/12/14 12:22:47;;;;;;;21.70;11.95;;;;;;;;;;4978046;28;20053;-85
2021/12/14 12:25:13;;;;;;;21.73;12.65;;;;;;;;;;4981964;28;20050;-85
2021/12/14 12:27:47;;;;;;;24.20;14.07;;;;;;;;;;4991678;28;20040;-85
2021/12/14 12:30:43;;;;;;;25.10;14.35;;;;;;;;;;4998646;28;20042;-85
2021/12/14 12:33:39;;;;;;;27.13;14.15;;;;;;;;;;4992571;28;20519;-84
2021/12/14 12:36:11;;;;;;;29.75;14.93;;;;;;;;;;4997850;28;20401;-86
2021/12/14 12:38:53;;;;;;;29.08;16.65;;;;;;;;;;4997632;28;20046;-85
2021/12/14 12:41:51;;;;;;;27.98;15.00;;;;;;;;;;4996717;28;20405;-86
2021/12/14 12:44:37;;;;;;;28.30;14.73;;;;;;;;;;4986494;28;20053;-86
2021/12/14 12:47:22;;;;;;;26.10;14.65;;;;;;;;;;4995409;28;20049;-86
2021/12/14 12:49:56;;;;;;;28.13;14.82;;;;;;;;;;4987218;28;20042;-84
2021/12/14 12:52:29;;;;;;;26.67;13.77;;;;;;;;;;4987558;28;20039;-86
2021/12/14 12:55:06;;;;;;;25.70;13.65;;;;;;;;;;4985324;28;20480;-85
2021/12/14 12:57:38;;;;;;;25.83;14.02;;;;;;;;;;4992170;28;20054;-83
2021/12/14 13:00:11;;;;;;;24.90;12.75;;;;;;;;;;4985610;28;20039;-84
2021/12/14 13:02:42;;;;;;;25.85;12.75;;;;;;;;;;4975850;28;20481;-84
2021/12/14 13:05:23;;;;;;;;;;;;;;;;;;4974757;28;20057;-83
2021/12/14 13:08:16;;;;;;;24.87;13.70;;;;;;;;;;4974340;28;19918;-84
2021/12/14 13:11:00;;;;;;;24.33;14.35;;;;;;;;;;4965540;28;20050;-84
2021/12/14 13:13:41;;;;;;;27.83;14.38;;;;;;;;;;4993767;28;20420;-84
2021/12/14 13:16:20;;;;;;;29.80;14.32;;;;;;;;;;4992688;28;20035;-83
2021/12/14 13:19:04;;;;;;;27.25;14.60;;;;;;;;;;4994393;28;20035;-84
2021/12/14 13:21:30;;;;;;;26.30;13.77;;;;;;;;;;4993994;28;20026;-84
2021/12/14 13:24:03;;;;;;;28.05;13.68;;;;;;;;;;4994261;28;20045;-84
2021/12/14 13:26:44;;;;;;;28.27;13.52;;;;;;;;;;4994351;28;20034;-83
2021/12/14 13:29:18;;;;;;;28.40;13.13;;;;;;;;;;4994933;28;20473;-84
2021/12/14 13:31:50;;;;;;;56.85;29.85;;;;;;;;;;4993956;28;20041;-83
2021/12/14 13:34:20;;;;;;;34.03;19.42;;;;;;;;;;4994276;28;20031;-84
2021/12/14 13:36:47;;;;;;;31.20;17.08;;;;;;;;;;4994798;28;20053;-84
2021/12/14 13:39:15;;;;;;;30.70;16.63;;;;;;;;;;4994810;28;20476;-83
2021/12/14 13:41:47;;;;;;;32.85;16.52;;;;;;;;;;4981767;28;20057;-84
2021/12/14 13:44:14;;;;;;;34.72;16.58;;;;;;;;;;4974508;28;20051;-84
2021/12/14 13:46:40;;;;;;;30.95;16.27;;;;;;;;;;4980262;28;20045;-84
2021/12/14 13:49:06;;;;;;;36.00;19.40;;;;;;;;;;4988410;28;20046;-84
2021/12/14 13:51:32;;;;;;;35.40;18.15;;;;;;;;;;4993337;28;20058;-82
2021/12/14 13:53:58;;;;;;;31.10;17.45;;;;;;;;;;4992125;28;20572;-82
2021/12/14 13:56:34;;;;;;;40.92;18.20;;;;;;;;;;4989134;28;20097;-83
2021/12/14 13:59:00;;;;;;;35.33;18.02;;;;;;;;;;4988920;28;20058;-83
2021/12/14 14:01:41;;;;;;;45.83;19.67;;;;;;;;;;4976570;28;20050;-83
2021/12/14 14:04:10;;;;;;;37.53;18.58;;;;;;;;;;4976440;28;20034;-83
2021/12/14 14:06:38;;;;;;;36.30;18.88;;;;;;;;;;4994086;28;20038;-83
2021/12/14 14:09:10;;;;;;;36.08;19.20;;;;;;;;;;5006355;28;20197;-83
2021/12/14 14:11:41;;;;;;;37.90;18.92;;;;;;;;;;4992455;28;20050;-83
2021/12/14 14:14:07;;;;;;;38.15;18.30;;;;;;;;;;4992226;28;20034;-82
2021/12/14 14:16:43;;;;;;;35.38;17.90;;;;;;;;;;4991682;28;20092;-82
2021/12/14 14:19:14;;;;;;;37.53;18.83;;;;;;;;;;4988707;28;20046;-82
2021/12/14 14:21:54;;;;;;;37.25;19.55;;;;;;;;;;4993453;28;20029;-82
2021/12/14 14:24:28;;;;;;;34.55;18.52;;;;;;;;;;4996023;28;20619;-82
2021/12/14 14:26:55;;;;;;;34.88;18.42;;;;;;;;;;4995767;28;20050;-82
2021/12/14 14:29:23;;;;;;;40.20;21.05;;;;;;;;;;4995362;28;20030;-82
2021/12/14 14:32:00;;;;;;;73.55;38.72;;;;;;;;;;4993768;28;20042;-84
2021/12/14 14:34:34;;;;;;;41.03;20.48;;;;;;;;;;4992013;28;20392;-83
2021/12/14 14:37:03;;;;;;;42.45;20.83;;;;;;;;;;4996188;28;20515;-83
2021/12/14 14:39:39;;;;;;;37.40;19.63;;;;;;;;;;4995550;28;20486;-83
2021/12/14 14:42:14;;;;;;;42.28;20.90;;;;;;;;;;4995979;28;20050;-84
2021/12/14 14:44:40;;;;;;;38.10;19.88;;;;;;;;;;4995703;28;20038;-82
2021/12/14 14:47:11;;;;;;;41.15;20.58;;;;;;;;;;4994953;28;20038;-84
2021/12/14 14:49:37;;;;;;;40.67;20.73;;;;;;;;;;4995052;28;20060;-84
2021/12/14 14:52:14;;;;;;;40.80;20.60;;;;;;;;;;4995522;28;20045;-83
2021/12/14 14:54:45;;;;;;;38.35;19.15;;;;;;;;;;4995199;28;20042;-84
2021/12/14 14:57:10;;;;;;;32.53;17.63;;;;;;;;;;4994969;28;20400;-83
2021/12/14 14:59:44;;;;;;;34.30;18.65;;;;;;;;;;5001522;28;20096;-84
2021/12/14 15:02:12;;;;;;;36.38;18.85;;;;;;;;;;4995289;28;20047;-84
2021/12/14 15:05:17;;;;;;;40.47;18.17;;;;;;;;;;4994547;28;20504;-84
2021/12/14 15:07:45;;;;;;;32.03;16.38;;;;;;;;;;4987339;28;20053;-84
2021/12/14 15:10:14;;;;;;;37.25;20.13;;;;;;;;;;4994836;28;20480;-84
2021/12/14 15:12:41;;;;;;;37.15;20.08;;;;;;;;;;4994099;28;20392;-84
2021/12/14 15:15:17;;;;;;;35.83;18.13;;;;;;;;;;4994518;28;20030;-84
2021/12/14 15:17:49;;;;;;;37.50;18.52;;;;;;;;;;4994781;28;20473;-84
2021/12/14 15:20:31;;;;;;;35.35;19.25;;;;;;;;;;4994686;28;20089;-84
2021/12/14 15:23:06;;;;;;;38.13;18.92;;;;;;;;;;4994935;28;20030;-85
2021/12/14 15:25:35;;;;;;;36.67;18.77;;;;;;;;;;4993937;28;20061;-84
2021/12/14 15:28:03;;;;;;;39.78;19.20;;;;;;;;;;4994237;28;20046;-84